sensor_id;sensor_type;location;lat;lon;timestamp;temperature;humidity
22442;DHT22;11388;54.456;9.752;2023-03-03T00:00:25;3.40;99.90
22442;DHT22;11388;54.456;9.752;2023-03-03T00:02:50;3.20;99.90
22442;DHT22;11388;54.456;9.752;2023-03-03T00:05:16;3.20;99.90
22442;DHT22;11388;54.456;9.752;2023-03-03T00:07:46;3.20;99.90
22442;DHT22;11388;54.456;9.752;2023-03-03T00:10:13;3.10;99.90
22442;DHT22;11388;54.456;9.752;2023-03-03T00:12:47;3.20;99.90
22442;DHT22;11388;54.456;9.752;2023-03-03T00:15:22;3.20;99.90
22442;DHT22;11388;54.456;9.752;2023-03-03T00:17:48;3.20;99.90
22442;DHT22;11388;54.456;9.752;2023-03-03T00:20:36;3.10;99.90
22442;DHT22;11388;54.456;9.752;2023-03-03T00:23:35;3.00;99.90
22442;DHT22;11388;54.456;9.752;2023-03-03T00:26:02;2.90;99.90
22442;DHT22;11388;54.456;9.752;2023-03-03T00:28:48;2.90;99.90
22442;DHT22;11388;54.456;9.752;2023-03-03T00:31:17;2.90;99.90
22442;DHT22;11388;54.456;9.752;2023-03-03T00:33:48;2.80;99.90
22442;DHT22;11388;54.456;9.752;2023-03-03T00:36:35;2.80;99.90
22442;DHT22;11388;54.456;9.752;2023-03-03T00:39:37;2.80;99.90
22442;DHT22;11388;54.456;9.752;2023-03-03T00:42:29;2.70;99.90
22442;DHT22;11388;54.456;9.752;2023-03-03T00:44:58;2.70;99.90
22442;DHT22;11388;54.456;9.752;2023-03-03T00:49:54;2.80;99.90
22442;DHT22;11388;54.456;9.752;2023-03-03T00:52:21;2.80;99.90
22442;DHT22;11388;54.456;9.752;2023-03-03T00:54:52;2.70;99.90
22442;DHT22;11388;54.456;9.752;2023-03-03T00:57:17;2.60;99.90
22442;DHT22;11388;54.456;9.752;2023-03-03T00:59:43;2.60;99.90
22442;DHT22;11388;54.456;9.752;2023-03-03T01:02:10;2.50;99.90
22442;DHT22;11388;54.456;9.752;2023-03-03T01:04:36;2.50;99.90
22442;DHT22;11388;54.456;9.752;2023-03-03T01:07:01;2.60;99.90
22442;DHT22;11388;54.456;9.752;2023-03-03T01:09:28;2.70;99.90
22442;DHT22;11388;54.456;9.752;2023-03-03T01:11:54;2.70;99.90
22442;DHT22;11388;54.456;9.752;2023-03-03T01:14:20;2.60;99.90
22442;DHT22;11388;54.456;9.752;2023-03-03T01:16:45;2.60;99.90
22442;DHT22;11388;54.456;9.752;2023-03-03T01:19:11;2.70;99.90
22442;DHT22;11388;54.456;9.752;2023-03-03T01:21:37;2.70;99.90
22442;DHT22;11388;54.456;9.752;2023-03-03T01:24:04;2.70;99.90
22442;DHT22;11388;54.456;9.752;2023-03-03T01:26:30;2.60;99.90
22442;DHT22;11388;54.456;9.752;2023-03-03T01:28:55;2.60;99.90
22442;DHT22;11388;54.456;9.752;2023-03-03T01:31:21;2.60;99.90
22442;DHT22;11388;54.456;9.752;2023-03-03T01:33:47;2.60;99.90
22442;DHT22;11388;54.456;9.752;2023-03-03T01:36:12;2.70;99.90
22442;DHT22;11388;54.456;9.752;2023-03-03T01:38:38;2.60;99.90
22442;DHT22;11388;54.456;9.752;2023-03-03T01:41:04;2.60;99.90
22442;DHT22;11388;54.456;9.752;2023-03-03T01:43:31;2.50;99.90
22442;DHT22;11388;54.456;9.752;2023-03-03T01:48:32;2.50;99.90
22442;DHT22;11388;54.456;9.752;2023-03-03T01:53:50;2.60;99.90
22442;DHT22;11388;54.456;9.752;2023-03-03T01:56:17;2.60;99.90
22442;DHT22;11388;54.456;9.752;2023-03-03T01:58:53;2.60;99.90
22442;DHT22;11388;54.456;9.752;2023-03-03T02:01:25;2.60;99.90
22442;DHT22;11388;54.456;9.752;2023-03-03T02:03:52;2.60;99.90
22442;DHT22;11388;54.456;9.752;2023-03-03T02:06:27;2.60;99.90
22442;DHT22;11388;54.456;9.752;2023-03-03T02:09:04;2.60;99.90
22442;DHT22;11388;54.456;9.752;2023-03-03T02:11:34;2.50;99.90
22442;DHT22;11388;54.456;9.752;2023-03-03T02:14:01;2.50;99.90
22442;DHT22;11388;54.456;9.752;2023-03-03T02:16:27;2.50;99.90
22442;DHT22;11388;54.456;9.752;2023-03-03T02:18:53;2.40;99.90
22442;DHT22;11388;54.456;9.752;2023-03-03T02:21:20;2.50;99.90
22442;DHT22;11388;54.456;9.752;2023-03-03T02:23:52;2.40;99.90
22442;DHT22;11388;54.456;9.752;2023-03-03T02:26:30;2.40;99.90
22442;DHT22;11388;54.456;9.752;2023-03-03T02:28:57;2.50;99.90
22442;DHT22;11388;54.456;9.752;2023-03-03T02:31:25;2.50;99.90
22442;DHT22;11388;54.456;9.752;2023-03-03T02:33:52;2.40;99.90
22442;DHT22;11388;54.456;9.752;2023-03-03T02:36:21;2.50;99.90
22442;DHT22;11388;54.456;9.752;2023-03-03T02:42:01;2.30;99.90
22442;DHT22;11388;54.456;9.752;2023-03-03T02:44:29;2.40;99.90
22442;DHT22;11388;54.456;9.752;2023-03-03T02:46:56;2.40;99.90
22442;DHT22;11388;54.456;9.752;2023-03-03T02:49:27;2.30;99.90
22442;DHT22;11388;54.456;9.752;2023-03-03T02:51:54;2.40;99.90
22442;DHT22;11388;54.456;9.752;2023-03-03T02:54:21;2.40;99.90
22442;DHT22;11388;54.456;9.752;2023-03-03T02:56:47;2.20;99.90
22442;DHT22;11388;54.456;9.752;2023-03-03T02:59:14;2.30;99.90
22442;DHT22;11388;54.456;9.752;2023-03-03T03:01:39;2.30;99.90
22442;DHT22;11388;54.456;9.752;2023-03-03T03:04:11;2.20;99.90
22442;DHT22;11388;54.456;9.752;2023-03-03T03:06:37;2.20;99.90
22442;DHT22;11388;54.456;9.752;2023-03-03T03:09:06;2.20;99.90
22442;DHT22;11388;54.456;9.752;2023-03-03T03:11:33;2.20;99.90
22442;DHT22;11388;54.456;9.752;2023-03-03T03:14:00;2.20;99.90
22442;DHT22;11388;54.456;9.752;2023-03-03T03:16:26;2.10;99.90
22442;DHT22;11388;54.456;9.752;2023-03-03T03:18:52;2.20;99.90
22442;DHT22;11388;54.456;9.752;2023-03-03T03:21:18;2.10;99.90
22442;DHT22;11388;54.456;9.752;2023-03-03T03:23:43;2.10;99.90
22442;DHT22;11388;54.456;9.752;2023-03-03T03:26:10;2.20;99.90
22442;DHT22;11388;54.456;9.752;2023-03-03T03:28:36;2.20;99.90
22442;DHT22;11388;54.456;9.752;2023-03-03T03:31:04;2.10;99.90
22442;DHT22;11388;54.456;9.752;2023-03-03T03:33:30;2.00;99.90
22442;DHT22;11388;54.456;9.752;2023-03-03T03:35:56;1.90;99.90
22442;DHT22;11388;54.456;9.752;2023-03-03T03:38:23;1.80;99.90
22442;DHT22;11388;54.456;9.752;2023-03-03T03:40:48;1.80;99.90
22442;DHT22;11388;54.456;9.752;2023-03-03T03:43:14;1.70;99.90
22442;DHT22;11388;54.456;9.752;2023-03-03T03:45:43;1.80;99.90
22442;DHT22;11388;54.456;9.752;2023-03-03T03:48:10;1.80;99.90
22442;DHT22;11388;54.456;9.752;2023-03-03T03:50:36;1.80;99.90
22442;DHT22;11388;54.456;9.752;2023-03-03T03:53:04;2.00;99.90
22442;DHT22;11388;54.456;9.752;2023-03-03T03:55:29;1.90;99.90
22442;DHT22;11388;54.456;9.752;2023-03-03T03:57:56;1.90;99.90
22442;DHT22;11388;54.456;9.752;2023-03-03T04:00:21;1.90;99.90
22442;DHT22;11388;54.456;9.752;2023-03-03T04:02:48;2.00;99.90
22442;DHT22;11388;54.456;9.752;2023-03-03T04:05:14;2.10;99.90
22442;DHT22;11388;54.456;9.752;2023-03-03T04:07:40;2.20;99.90
22442;DHT22;11388;54.456;9.752;2023-03-03T04:10:06;2.10;99.90
22442;DHT22;11388;54.456;9.752;2023-03-03T04:12:32;2.40;99.90
22442;DHT22;11388;54.456;9.752;2023-03-03T04:15:07;2.50;99.90
22442;DHT22;11388;54.456;9.752;2023-03-03T04:17:33;2.60;99.90
22442;DHT22;11388;54.456;9.752;2023-03-03T04:19:59;2.60;99.90
22442;DHT22;11388;54.456;9.752;2023-03-03T04:22:26;2.70;99.90
22442;DHT22;11388;54.456;9.752;2023-03-03T04:24:52;2.60;99.90
22442;DHT22;11388;54.456;9.752;2023-03-03T04:27:18;2.60;99.90
22442;DHT22;11388;54.456;9.752;2023-03-03T04:29:43;2.60;99.90
22442;DHT22;11388;54.456;9.752;2023-03-03T04:32:09;2.50;99.90
22442;DHT22;11388;54.456;9.752;2023-03-03T04:34:35;2.60;99.90
22442;DHT22;11388;54.456;9.752;2023-03-03T04:37:01;2.60;99.90
22442;DHT22;11388;54.456;9.752;2023-03-03T04:39:27;2.60;99.90
22442;DHT22;11388;54.456;9.752;2023-03-03T04:41:53;2.60;99.90
22442;DHT22;11388;54.456;9.752;2023-03-03T04:44:19;2.70;99.90
22442;DHT22;11388;54.456;9.752;2023-03-03T04:46:45;2.90;99.90
22442;DHT22;11388;54.456;9.752;2023-03-03T04:49:10;2.90;99.90
22442;DHT22;11388;54.456;9.752;2023-03-03T04:51:36;2.80;99.90
22442;DHT22;11388;54.456;9.752;2023-03-03T04:54:02;2.80;99.90
22442;DHT22;11388;54.456;9.752;2023-03-03T04:56:29;2.90;99.90
22442;DHT22;11388;54.456;9.752;2023-03-03T04:58:56;2.80;99.90
22442;DHT22;11388;54.456;9.752;2023-03-03T05:01:21;2.80;99.90
22442;DHT22;11388;54.456;9.752;2023-03-03T05:03:47;2.80;99.90
22442;DHT22;11388;54.456;9.752;2023-03-03T05:06:13;2.60;99.90
22442;DHT22;11388;54.456;9.752;2023-03-03T05:08:39;2.60;99.90
22442;DHT22;11388;54.456;9.752;2023-03-03T05:11:04;2.50;99.90
22442;DHT22;11388;54.456;9.752;2023-03-03T05:13:30;2.70;99.90
22442;DHT22;11388;54.456;9.752;2023-03-03T05:15:57;2.70;99.90
22442;DHT22;11388;54.456;9.752;2023-03-03T05:18:23;2.80;99.90
22442;DHT22;11388;54.456;9.752;2023-03-03T05:20:50;2.80;99.90
22442;DHT22;11388;54.456;9.752;2023-03-03T05:23:17;2.70;99.90
22442;DHT22;11388;54.456;9.752;2023-03-03T05:25:43;2.70;99.90
22442;DHT22;11388;54.456;9.752;2023-03-03T05:28:09;2.70;99.90
22442;DHT22;11388;54.456;9.752;2023-03-03T05:30:35;2.70;99.90
22442;DHT22;11388;54.456;9.752;2023-03-03T05:33:02;2.70;99.90
22442;DHT22;11388;54.456;9.752;2023-03-03T05:35:28;2.60;99.90
22442;DHT22;11388;54.456;9.752;2023-03-03T05:37:54;2.60;99.90
22442;DHT22;11388;54.456;9.752;2023-03-03T05:40:23;2.50;99.90
22442;DHT22;11388;54.456;9.752;2023-03-03T05:42:48;2.40;99.90
22442;DHT22;11388;54.456;9.752;2023-03-03T05:45:14;2.30;99.90
22442;DHT22;11388;54.456;9.752;2023-03-03T05:47:40;2.20;99.90
22442;DHT22;11388;54.456;9.752;2023-03-03T05:50:06;2.10;99.90
22442;DHT22;11388;54.456;9.752;2023-03-03T05:52:31;2.20;99.90
22442;DHT22;11388;54.456;9.752;2023-03-03T05:54:57;2.30;99.90
22442;DHT22;11388;54.456;9.752;2023-03-03T05:57:23;2.30;99.90
22442;DHT22;11388;54.456;9.752;2023-03-03T05:59:48;2.40;99.90
22442;DHT22;11388;54.456;9.752;2023-03-03T06:02:14;2.40;99.90
22442;DHT22;11388;54.456;9.752;2023-03-03T06:04:39;2.20;99.90
22442;DHT22;11388;54.456;9.752;2023-03-03T06:07:05;2.20;99.90
22442;DHT22;11388;54.456;9.752;2023-03-03T06:09:32;2.20;99.90
22442;DHT22;11388;54.456;9.752;2023-03-03T06:11:58;2.30;99.90
22442;DHT22;11388;54.456;9.752;2023-03-03T06:14:24;2.40;99.90
22442;DHT22;11388;54.456;9.752;2023-03-03T06:16:52;2.40;99.90
22442;DHT22;11388;54.456;9.752;2023-03-03T06:19:18;2.50;99.90
22442;DHT22;11388;54.456;9.752;2023-03-03T06:21:43;2.50;99.90
22442;DHT22;11388;54.456;9.752;2023-03-03T06:24:09;2.50;99.90
22442;DHT22;11388;54.456;9.752;2023-03-03T06:26:35;2.40;99.90
22442;DHT22;11388;54.456;9.752;2023-03-03T06:29:00;2.40;99.90
22442;DHT22;11388;54.456;9.752;2023-03-03T06:31:27;2.40;99.90
22442;DHT22;11388;54.456;9.752;2023-03-03T06:33:53;2.50;99.90
22442;DHT22;11388;54.456;9.752;2023-03-03T06:36:19;2.40;99.90
22442;DHT22;11388;54.456;9.752;2023-03-03T06:38:45;2.40;99.90
22442;DHT22;11388;54.456;9.752;2023-03-03T06:41:10;2.30;99.90
22442;DHT22;11388;54.456;9.752;2023-03-03T06:43:37;2.10;99.90
22442;DHT22;11388;54.456;9.752;2023-03-03T06:46:04;2.10;99.90
22442;DHT22;11388;54.456;9.752;2023-03-03T06:48:32;2.10;99.90
22442;DHT22;11388;54.456;9.752;2023-03-03T06:50:59;2.10;99.90
22442;DHT22;11388;54.456;9.752;2023-03-03T06:53:26;2.10;99.90
22442;DHT22;11388;54.456;9.752;2023-03-03T06:55:54;2.20;99.90
22442;DHT22;11388;54.456;9.752;2023-03-03T06:58:21;2.20;99.90
22442;DHT22;11388;54.456;9.752;2023-03-03T07:00:59;2.20;99.90
22442;DHT22;11388;54.456;9.752;2023-03-03T07:03:34;2.30;99.90
22442;DHT22;11388;54.456;9.752;2023-03-03T07:06:01;2.40;99.90
22442;DHT22;11388;54.456;9.752;2023-03-03T07:08:31;2.40;99.90
22442;DHT22;11388;54.456;9.752;2023-03-03T07:11:01;2.50;99.90
22442;DHT22;11388;54.456;9.752;2023-03-03T07:13:31;2.50;99.90
22442;DHT22;11388;54.456;9.752;2023-03-03T07:16:00;2.60;99.90
22442;DHT22;11388;54.456;9.752;2023-03-03T07:18:34;2.60;99.90
22442;DHT22;11388;54.456;9.752;2023-03-03T07:21:30;2.60;99.90
22442;DHT22;11388;54.456;9.752;2023-03-03T07:23:57;2.50;99.90
22442;DHT22;11388;54.456;9.752;2023-03-03T07:26:27;2.60;99.90
22442;DHT22;11388;54.456;9.752;2023-03-03T07:28:56;2.70;99.90
22442;DHT22;11388;54.456;9.752;2023-03-03T07:31:45;2.70;99.90
22442;DHT22;11388;54.456;9.752;2023-03-03T07:34:22;2.70;99.90
22442;DHT22;11388;54.456;9.752;2023-03-03T07:36:57;2.70;99.90
22442;DHT22;11388;54.456;9.752;2023-03-03T07:44:38;2.40;99.90
22442;DHT22;11388;54.456;9.752;2023-03-03T07:47:27;2.40;99.90
22442;DHT22;11388;54.456;9.752;2023-03-03T07:49:54;2.50;99.90
22442;DHT22;11388;54.456;9.752;2023-03-03T07:54:51;2.30;99.90
22442;DHT22;11388;54.456;9.752;2023-03-03T07:57:22;2.40;99.90
22442;DHT22;11388;54.456;9.752;2023-03-03T07:59:50;2.60;99.90
22442;DHT22;11388;54.456;9.752;2023-03-03T08:05:37;2.90;99.90
22442;DHT22;11388;54.456;9.752;2023-03-03T08:10:50;2.90;99.90
22442;DHT22;11388;54.456;9.752;2023-03-03T08:13:27;3.00;99.90
22442;DHT22;11388;54.456;9.752;2023-03-03T08:18:54;3.30;99.90
22442;DHT22;11388;54.456;9.752;2023-03-03T08:21:24;3.30;99.90
22442;DHT22;11388;54.456;9.752;2023-03-03T08:23:51;3.40;99.90
22442;DHT22;11388;54.456;9.752;2023-03-03T08:26:19;3.60;99.90
22442;DHT22;11388;54.456;9.752;2023-03-03T08:28:46;3.70;99.90
22442;DHT22;11388;54.456;9.752;2023-03-03T08:31:11;3.80;99.90
22442;DHT22;11388;54.456;9.752;2023-03-03T08:33:37;4.00;99.90
22442;DHT22;11388;54.456;9.752;2023-03-03T08:36:04;3.90;99.90
22442;DHT22;11388;54.456;9.752;2023-03-03T08:38:30;3.90;99.90
22442;DHT22;11388;54.456;9.752;2023-03-03T08:40:56;3.80;99.90
22442;DHT22;11388;54.456;9.752;2023-03-03T08:43:21;3.80;99.90
22442;DHT22;11388;54.456;9.752;2023-03-03T08:45:53;3.90;99.90
22442;DHT22;11388;54.456;9.752;2023-03-03T08:48:22;4.00;99.90
22442;DHT22;11388;54.456;9.752;2023-03-03T08:50:48;4.20;99.90
22442;DHT22;11388;54.456;9.752;2023-03-03T08:53:14;4.40;99.90
22442;DHT22;11388;54.456;9.752;2023-03-03T08:55:41;4.50;99.90
22442;DHT22;11388;54.456;9.752;2023-03-03T08:58:07;4.40;99.90
22442;DHT22;11388;54.456;9.752;2023-03-03T09:00:33;4.60;99.90
22442;DHT22;11388;54.456;9.752;2023-03-03T09:02:59;4.80;99.90
22442;DHT22;11388;54.456;9.752;2023-03-03T09:05:25;4.90;99.90
22442;DHT22;11388;54.456;9.752;2023-03-03T09:07:53;4.90;99.90
22442;DHT22;11388;54.456;9.752;2023-03-03T09:10:23;5.00;99.90
22442;DHT22;11388;54.456;9.752;2023-03-03T09:12:52;5.20;99.90
22442;DHT22;11388;54.456;9.752;2023-03-03T09:17:43;5.30;99.90
22442;DHT22;11388;54.456;9.752;2023-03-03T09:20:48;5.30;99.90
22442;DHT22;11388;54.456;9.752;2023-03-03T09:28:41;5.50;99.90
22442;DHT22;11388;54.456;9.752;2023-03-03T09:31:21;5.50;99.90
22442;DHT22;11388;54.456;9.752;2023-03-03T09:33:48;5.50;99.90
22442;DHT22;11388;54.456;9.752;2023-03-03T09:36:39;5.60;99.90
22442;DHT22;11388;54.456;9.752;2023-03-03T09:44:18;5.60;99.90
22442;DHT22;11388;54.456;9.752;2023-03-03T10:03:30;5.70;99.90
22442;DHT22;11388;54.456;9.752;2023-03-03T10:06:02;5.70;99.90
22442;DHT22;11388;54.456;9.752;2023-03-03T10:19:38;5.90;99.90
22442;DHT22;11388;54.456;9.752;2023-03-03T10:43:27;6.30;99.90
22442;DHT22;11388;54.456;9.752;2023-03-03T10:47:16;6.30;99.90
22442;DHT22;11388;54.456;9.752;2023-03-03T11:11:04;6.80;99.90
22442;DHT22;11388;54.456;9.752;2023-03-03T11:13:50;6.70;99.90
22442;DHT22;11388;54.456;9.752;2023-03-03T11:26:59;7.00;99.90
22442;DHT22;11388;54.456;9.752;2023-03-03T11:32:12;6.80;99.90
22442;DHT22;11388;54.456;9.752;2023-03-03T11:35:03;6.90;99.90
22442;DHT22;11388;54.456;9.752;2023-03-03T11:40:20;7.10;99.90
22442;DHT22;11388;54.456;9.752;2023-03-03T11:45:44;7.20;99.90
22442;DHT22;11388;54.456;9.752;2023-03-03T11:51:22;7.50;99.90
22442;DHT22;11388;54.456;9.752;2023-03-03T11:56:48;7.60;99.90
22442;DHT22;11388;54.456;9.752;2023-03-03T12:04:35;7.70;99.90
22442;DHT22;11388;54.456;9.752;2023-03-03T12:12:47;7.50;99.90
22442;DHT22;11388;54.456;9.752;2023-03-03T12:21:02;8.00;99.90
22442;DHT22;11388;54.456;9.752;2023-03-03T12:23:49;7.70;99.90
22442;DHT22;11388;54.456;9.752;2023-03-03T12:34:45;8.50;99.90
22442;DHT22;11388;54.456;9.752;2023-03-03T12:38:14;8.50;99.90
22442;DHT22;11388;54.456;9.752;2023-03-03T12:40:34;8.40;99.90
22442;DHT22;11388;54.456;9.752;2023-03-03T12:45:55;8.30;99.90
22442;DHT22;11388;54.456;9.752;2023-03-03T12:57:00;8.30;99.90
22442;DHT22;11388;54.456;9.752;2023-03-03T12:59:46;9.30;99.90
22442;DHT22;11388;54.456;9.752;2023-03-03T13:05:23;10.90;99.90
22442;DHT22;11388;54.456;9.752;2023-03-03T13:13:41;10.60;99.90
22442;DHT22;11388;54.456;9.752;2023-03-03T13:16:13;10.10;99.90
22442;DHT22;11388;54.456;9.752;2023-03-03T13:19:03;9.70;99.90
22442;DHT22;11388;54.456;9.752;2023-03-03T13:21:39;9.60;99.90
22442;DHT22;11388;54.456;9.752;2023-03-03T13:24:13;8.80;99.90
22442;DHT22;11388;54.456;9.752;2023-03-03T13:26:44;8.60;99.90
22442;DHT22;11388;54.456;9.752;2023-03-03T13:29:23;8.60;99.90
22442;DHT22;11388;54.456;9.752;2023-03-03T13:31:59;8.80;99.90
22442;DHT22;11388;54.456;9.752;2023-03-03T13:34:42;8.60;99.90
22442;DHT22;11388;54.456;9.752;2023-03-03T13:40:09;8.50;99.90
22442;DHT22;11388;54.456;9.752;2023-03-03T13:51:02;7.50;99.90
22442;DHT22;11388;54.456;9.752;2023-03-03T13:57:03;7.60;99.90
22442;DHT22;11388;54.456;9.752;2023-03-03T14:02:11;7.80;99.90
22442;DHT22;11388;54.456;9.752;2023-03-03T14:10:28;7.40;99.90
22442;DHT22;11388;54.456;9.752;2023-03-03T14:13:07;7.60;99.90
22442;DHT22;11388;54.456;9.752;2023-03-03T14:15:50;7.70;99.90
22442;DHT22;11388;54.456;9.752;2023-03-03T14:20:53;8.10;99.90
22442;DHT22;11388;54.456;9.752;2023-03-03T14:23:27;8.00;99.90
22442;DHT22;11388;54.456;9.752;2023-03-03T14:26:06;8.00;99.90
22442;DHT22;11388;54.456;9.752;2023-03-03T14:28:41;7.70;99.90
22442;DHT22;11388;54.456;9.752;2023-03-03T14:33:45;7.60;99.90
22442;DHT22;11388;54.456;9.752;2023-03-03T14:36:12;7.70;99.90
22442;DHT22;11388;54.456;9.752;2023-03-03T14:38:43;7.60;99.90
22442;DHT22;11388;54.456;9.752;2023-03-03T14:43:39;8.00;99.90
22442;DHT22;11388;54.456;9.752;2023-03-03T14:48:50;7.70;99.90
22442;DHT22;11388;54.456;9.752;2023-03-03T14:51:44;7.70;99.90
22442;DHT22;11388;54.456;9.752;2023-03-03T14:54:24;7.70;99.90
22442;DHT22;11388;54.456;9.752;2023-03-03T14:59:36;7.60;99.90
22442;DHT22;11388;54.456;9.752;2023-03-03T15:04:42;7.70;99.90
22442;DHT22;11388;54.456;9.752;2023-03-03T15:07:36;7.80;99.90
22442;DHT22;11388;54.456;9.752;2023-03-03T15:10:04;8.00;99.90
22442;DHT22;11388;54.456;9.752;2023-03-03T15:22:32;7.70;99.90
22442;DHT22;11388;54.456;9.752;2023-03-03T15:25:35;7.60;99.90
22442;DHT22;11388;54.456;9.752;2023-03-03T15:33:45;7.60;99.90
22442;DHT22;11388;54.456;9.752;2023-03-03T15:36:24;7.80;99.90
22442;DHT22;11388;54.456;9.752;2023-03-03T15:39:17;8.00;99.90
22442;DHT22;11388;54.456;9.752;2023-03-03T15:42:13;8.10;99.90
22442;DHT22;11388;54.456;9.752;2023-03-03T15:50:43;7.80;99.90
22442;DHT22;11388;54.456;9.752;2023-03-03T15:56:11;7.60;99.90
22442;DHT22;11388;54.456;9.752;2023-03-03T16:01:34;7.40;99.90
22442;DHT22;11388;54.456;9.752;2023-03-03T16:04:10;7.40;99.90
22442;DHT22;11388;54.456;9.752;2023-03-03T16:12:16;7.50;99.90
22442;DHT22;11388;54.456;9.752;2023-03-03T16:20:32;7.10;99.90
22442;DHT22;11388;54.456;9.752;2023-03-03T16:30:57;6.90;99.90
22442;DHT22;11388;54.456;9.752;2023-03-03T16:33:38;6.90;99.90
22442;DHT22;11388;54.456;9.752;2023-03-03T16:38:48;6.80;99.90
22442;DHT22;11388;54.456;9.752;2023-03-03T16:41:26;6.60;99.90
22442;DHT22;11388;54.456;9.752;2023-03-03T16:46:37;6.50;99.90
22442;DHT22;11388;54.456;9.752;2023-03-03T16:52:12;6.50;99.90
22442;DHT22;11388;54.456;9.752;2023-03-03T16:54:56;6.40;99.90
22442;DHT22;11388;54.456;9.752;2023-03-03T17:06:00;6.20;99.90
22442;DHT22;11388;54.456;9.752;2023-03-03T17:08:47;6.10;99.90
22442;DHT22;11388;54.456;9.752;2023-03-03T17:17:04;6.00;99.90
22442;DHT22;11388;54.456;9.752;2023-03-03T17:25:32;5.90;99.90
22442;DHT22;11388;54.456;9.752;2023-03-03T17:30:59;5.80;99.90
22442;DHT22;11388;54.456;9.752;2023-03-03T17:36:41;5.80;99.90
22442;DHT22;11388;54.456;9.752;2023-03-03T17:45:11;5.70;99.90
22442;DHT22;11388;54.456;9.752;2023-03-03T17:53:46;5.70;99.90
22442;DHT22;11388;54.456;9.752;2023-03-03T17:56:23;5.70;99.90
22442;DHT22;11388;54.456;9.752;2023-03-03T18:23:44;5.50;99.90
22442;DHT22;11388;54.456;9.752;2023-03-03T18:29:18;5.50;99.90
22442;DHT22;11388;54.456;9.752;2023-03-03T18:34:30;5.40;99.90
22442;DHT22;11388;54.456;9.752;2023-03-03T18:39:41;5.30;99.90
22442;DHT22;11388;54.456;9.752;2023-03-03T18:44:43;5.30;99.90
22442;DHT22;11388;54.456;9.752;2023-03-03T18:47:09;5.30;99.90
22442;DHT22;11388;54.456;9.752;2023-03-03T18:52:32;5.20;99.90
22442;DHT22;11388;54.456;9.752;2023-03-03T18:57:34;5.20;99.90
22442;DHT22;11388;54.456;9.752;2023-03-03T19:00:23;5.20;99.90
22442;DHT22;11388;54.456;9.752;2023-03-03T19:02:53;5.20;99.90
22442;DHT22;11388;54.456;9.752;2023-03-03T19:05:26;5.10;99.90
22442;DHT22;11388;54.456;9.752;2023-03-03T19:08:24;5.00;99.90
22442;DHT22;11388;54.456;9.752;2023-03-03T19:11:01;5.00;99.90
22442;DHT22;11388;54.456;9.752;2023-03-03T19:16:02;4.90;99.90
22442;DHT22;11388;54.456;9.752;2023-03-03T19:21:18;4.90;99.90
22442;DHT22;11388;54.456;9.752;2023-03-03T19:23:55;4.90;99.90
22442;DHT22;11388;54.456;9.752;2023-03-03T19:34:12;4.70;99.90
22442;DHT22;11388;54.456;9.752;2023-03-03T19:39:56;4.70;99.90
22442;DHT22;11388;54.456;9.752;2023-03-03T19:42:43;4.70;99.90
22442;DHT22;11388;54.456;9.752;2023-03-03T19:45:36;4.80;99.90
22442;DHT22;11388;54.456;9.752;2023-03-03T19:48:05;4.70;99.90
22442;DHT22;11388;54.456;9.752;2023-03-03T19:53:41;4.70;99.90
22442;DHT22;11388;54.456;9.752;2023-03-03T19:56:34;4.60;99.90
22442;DHT22;11388;54.456;9.752;2023-03-03T19:59:30;4.60;99.90
22442;DHT22;11388;54.456;9.752;2023-03-03T20:10:12;4.40;99.90
22442;DHT22;11388;54.456;9.752;2023-03-03T20:15:37;4.50;99.90
22442;DHT22;11388;54.456;9.752;2023-03-03T20:31:35;4.60;99.90
22442;DHT22;11388;54.456;9.752;2023-03-03T20:36:55;4.60;99.90
22442;DHT22;11388;54.456;9.752;2023-03-03T20:53:50;4.60;99.90
22442;DHT22;11388;54.456;9.752;2023-03-03T20:56:28;4.70;99.90
22442;DHT22;11388;54.456;9.752;2023-03-03T21:03:53;5.00;99.90
22442;DHT22;11388;54.456;9.752;2023-03-03T21:06:20;5.10;99.90
22442;DHT22;11388;54.456;9.752;2023-03-03T21:08:55;5.20;99.90
22442;DHT22;11388;54.456;9.752;2023-03-03T21:13:54;5.50;99.90
22442;DHT22;11388;54.456;9.752;2023-03-03T21:21:28;5.60;99.90
22442;DHT22;11388;54.456;9.752;2023-03-03T21:23:55;5.70;99.90
22442;DHT22;11388;54.456;9.752;2023-03-03T21:29:34;5.80;99.90
22442;DHT22;11388;54.456;9.752;2023-03-03T21:32:05;5.90;99.90
22442;DHT22;11388;54.456;9.752;2023-03-03T21:37:08;6.00;99.90
22442;DHT22;11388;54.456;9.752;2023-03-03T21:39:36;6.00;99.90
22442;DHT22;11388;54.456;9.752;2023-03-03T21:42:12;6.00;99.90
22442;DHT22;11388;54.456;9.752;2023-03-03T21:44:40;6.00;99.90
22442;DHT22;11388;54.456;9.752;2023-03-03T21:47:11;6.10;99.90
22442;DHT22;11388;54.456;9.752;2023-03-03T21:49:44;6.10;99.90
22442;DHT22;11388;54.456;9.752;2023-03-03T21:52:11;6.20;99.90
22442;DHT22;11388;54.456;9.752;2023-03-03T21:54:37;6.20;99.90
22442;DHT22;11388;54.456;9.752;2023-03-03T21:57:04;6.20;99.90
22442;DHT22;11388;54.456;9.752;2023-03-03T21:59:29;6.30;99.90
22442;DHT22;11388;54.456;9.752;2023-03-03T22:01:55;6.40;99.90
22442;DHT22;11388;54.456;9.752;2023-03-03T22:04:23;6.40;99.90
22442;DHT22;11388;54.456;9.752;2023-03-03T22:06:49;6.40;99.90
22442;DHT22;11388;54.456;9.752;2023-03-03T22:09:17;6.40;99.90
22442;DHT22;11388;54.456;9.752;2023-03-03T22:11:43;6.40;99.90
22442;DHT22;11388;54.456;9.752;2023-03-03T22:14:09;6.50;99.90
22442;DHT22;11388;54.456;9.752;2023-03-03T22:16:35;6.50;99.90
22442;DHT22;11388;54.456;9.752;2023-03-03T22:19:01;6.50;99.90
22442;DHT22;11388;54.456;9.752;2023-03-03T22:21:28;6.50;99.90
22442;DHT22;11388;54.456;9.752;2023-03-03T22:23:54;6.50;99.90
22442;DHT22;11388;54.456;9.752;2023-03-03T22:26:20;6.50;99.90
22442;DHT22;11388;54.456;9.752;2023-03-03T22:28:49;6.40;99.90
22442;DHT22;11388;54.456;9.752;2023-03-03T22:31:16;6.50;99.90
22442;DHT22;11388;54.456;9.752;2023-03-03T22:33:43;6.50;99.90
22442;DHT22;11388;54.456;9.752;2023-03-03T22:36:08;6.60;99.90
22442;DHT22;11388;54.456;9.752;2023-03-03T22:38:34;6.60;99.90
22442;DHT22;11388;54.456;9.752;2023-03-03T22:41:00;6.60;99.90
22442;DHT22;11388;54.456;9.752;2023-03-03T22:43:26;6.70;99.90
22442;DHT22;11388;54.456;9.752;2023-03-03T22:45:54;6.70;99.90
22442;DHT22;11388;54.456;9.752;2023-03-03T22:48:20;6.60;99.90
22442;DHT22;11388;54.456;9.752;2023-03-03T22:50:52;6.70;99.90
22442;DHT22;11388;54.456;9.752;2023-03-03T22:53:18;6.60;99.90
22442;DHT22;11388;54.456;9.752;2023-03-03T22:55:45;6.70;99.90
22442;DHT22;11388;54.456;9.752;2023-03-03T22:58:10;6.70;99.90
22442;DHT22;11388;54.456;9.752;2023-03-03T23:00:37;6.70;99.90
22442;DHT22;11388;54.456;9.752;2023-03-03T23:03:06;6.80;99.90
22442;DHT22;11388;54.456;9.752;2023-03-03T23:05:32;6.70;99.90
22442;DHT22;11388;54.456;9.752;2023-03-03T23:08:00;6.70;99.90
22442;DHT22;11388;54.456;9.752;2023-03-03T23:10:26;6.80;99.90
22442;DHT22;11388;54.456;9.752;2023-03-03T23:12:52;6.70;99.90
22442;DHT22;11388;54.456;9.752;2023-03-03T23:15:19;6.70;99.90
22442;DHT22;11388;54.456;9.752;2023-03-03T23:17:45;6.70;99.90
22442;DHT22;11388;54.456;9.752;2023-03-03T23:20:13;6.70;99.90